Time;durP1;ratioP1;P1;durP2;ratioP2;P2;SDS_P1;SDS_P2;PMS_P1;PMS_P2;Temp;Humidity;BMP_temperature;BMP_pressure;BME280_temperature;BME280_humidity;BME280_pressure;Samples;Min_cycle;Max_cycle;Signal;HPM_P1;HPM_P2
2023/10/12 04:01:24;;;;;;;1.10;1.10;;;13.30;99.90;;;;;;5512292;23;20511;-71
2023/10/12 04:04:08;;;;;;;1.80;1.43;;;13.20;99.90;;;;;;4954549;28;20577;-71
2023/10/12 04:07:04;;;;;;;1.13;1.07;;;13.20;99.90;;;;;;4954484;28;20472;-71
2023/10/12 04:09:31;;;;;;;9.20;1.27;;;13.20;99.90;;;;;;4954404;29;20552;-71
2023/10/12 04:12:11;;;;;;;2.10;1.60;;;13.20;99.90;;;;;;4943334;29;20496;-71
2023/10/12 04:14:44;;;;;;;1.93;1.73;;;13.20;99.90;;;;;;4934949;29;20528;-71
2023/10/12 04:17:40;;;;;;;2.70;1.20;;;13.20;99.90;;;;;;4954582;23;21026;-72
2023/10/12 04:20:19;;;;;;;1.80;1.10;;;13.20;99.90;;;;;;4947912;29;20480;-72
2023/10/12 04:25:45;;;;;;;2.10;1.70;;;13.10;99.90;;;;;;4954066;28;20471;-72
2023/10/12 04:28:18;;;;;;;1.00;0.90;;;13.20;99.90;;;;;;4939615;28;20584;-72
2023/10/12 04:33:29;;;;;;;3.43;1.20;;;13.10;99.90;;;;;;4934778;29;20465;-72
2023/10/12 04:36:13;;;;;;;5.87;1.47;;;13.10;99.90;;;;;;4927537;29;20839;-72
2023/10/12 04:38:58;;;;;;;2.87;1.20;;;13.00;99.90;;;;;;4934662;29;20485;-72
2023/10/12 04:41:37;;;;;;;1.23;1.13;;;13.00;99.90;;;;;;4935154;29;20477;-72
2023/10/12 04:44:25;;;;;;;5.90;1.33;;;13.00;99.90;;;;;;4935153;29;20471;-72
2023/10/12 04:46:51;;;;;;;3.63;1.40;;;13.00;99.90;;;;;;4934890;29;20576;-72
2023/10/12 04:52:16;;;;;;;5.00;2.67;;;13.00;99.90;;;;;;4934806;29;20467;-71
2023/10/12 04:54:59;;;;;;;2.10;0.93;;;13.00;99.90;;;;;;4934596;29;20524;-71
2023/10/12 04:57:27;;;;;;;1.70;1.33;;;12.90;99.90;;;;;;4934828;29;20485;-71
2023/10/12 05:00:08;;;;;;;7.30;1.53;;;12.90;99.90;;;;;;4934249;29;20529;-71
2023/10/12 05:02:53;;;;;;;1.40;1.37;;;12.90;99.90;;;;;;4934843;29;20465;-71
2023/10/12 05:08:07;;;;;;;2.33;1.30;;;13.00;99.90;;;;;;4934486;29;20556;-71
2023/10/12 05:10:46;;;;;;;0.80;0.80;;;12.90;99.90;;;;;;4934442;29;20469;-71
2023/10/12 05:13:19;;;;;;;2.37;1.30;;;12.90;99.90;;;;;;4934331;29;20468;-71
2023/10/12 05:15:54;;;;;;;1.80;1.70;;;12.90;99.90;;;;;;4934106;29;20517;-71
2023/10/12 05:18:22;;;;;;;2.00;1.30;;;12.90;99.90;;;;;;4933894;29;20488;-71
2023/10/12 05:20:51;;;;;;;2.33;1.73;;;12.90;99.90;;;;;;4933977;29;20505;-72
2023/10/12 05:23:18;;;;;;;2.10;1.47;;;12.80;99.90;;;;;;4934293;29;20886;-71
2023/10/12 05:25:53;;;;;;;4.27;1.77;;;12.80;99.90;;;;;;4934064;29;20560;-71
2023/10/12 05:28:21;;;;;;;7.53;1.43;;;12.80;99.90;;;;;;4934178;29;20540;-72
2023/10/12 05:30:50;;;;;;;2.50;1.77;;;12.80;99.90;;;;;;4933754;29;20470;-71
2023/10/12 05:33:37;;;;;;;4.10;1.87;;;12.80;99.90;;;;;;4934304;29;20809;-71
2023/10/12 05:36:09;;;;;;;1.70;1.60;;;12.80;99.90;;;;;;4935323;29;20462;-71
2023/10/12 05:38:37;;;;;;;2.93;2.73;;;12.80;99.90;;;;;;4936138;29;20553;-72
2023/10/12 05:41:08;;;;;;;4.50;1.43;;;12.80;99.90;;;;;;4934663;29;20458;-72
2023/10/12 05:43:36;;;;;;;3.47;1.60;;;12.80;99.90;;;;;;4934407;29;20528;-71
2023/10/12 05:46:09;;;;;;;5.60;2.10;;;12.80;99.90;;;;;;4934259;29;20465;-72
2023/10/12 05:48:37;;;;;;;5.40;1.90;;;12.80;99.90;;;;;;4933864;29;20516;-72
2023/10/12 05:51:09;;;;;;;4.53;2.07;;;12.70;99.90;;;;;;4933969;29;20545;-72
2023/10/12 05:53:37;;;;;;;5.37;2.40;;;12.80;99.90;;;;;;4933606;29;20493;-71
2023/10/12 05:56:05;;;;;;;1.87;1.77;;;12.70;99.90;;;;;;4934068;29;20540;-72
2023/10/12 05:58:33;;;;;;;6.70;2.30;;;12.80;99.90;;;;;;4933865;29;20494;-72
2023/10/12 06:01:08;;;;;;;3.70;3.17;;;12.70;99.90;;;;;;4934027;29;20585;-72
2023/10/12 06:03:36;;;;;;;3.80;2.10;;;12.80;99.90;;;;;;4934282;29;20469;-72
2023/10/12 06:06:03;;;;;;;5.57;2.10;;;12.70;99.90;;;;;;4933807;29;20960;-72
2023/10/12 06:08:32;;;;;;;3.70;2.20;;;12.80;99.90;;;;;;4933624;29;20485;-72
2023/10/12 06:10:59;;;;;;;6.00;2.63;;;12.70;99.90;;;;;;4934041;29;20489;-72
2023/10/12 06:13:31;;;;;;;8.20;2.50;;;12.70;99.90;;;;;;4936947;29;20837;-72
2023/10/12 06:15:57;;;;;;;2.70;2.30;;;12.70;99.90;;;;;;4937114;29;20568;-72
2023/10/12 06:18:30;;;;;;;7.27;2.50;;;12.70;99.90;;;;;;4936962;29;21003;-71
2023/10/12 06:20:59;;;;;;;6.40;3.23;;;12.70;99.90;;;;;;4937029;29;20939;-72
2023/10/12 06:23:28;;;;;;;3.40;2.17;;;12.80;99.90;;;;;;4937077;29;20611;-71
2023/10/12 06:25:56;;;;;;;3.17;2.23;;;12.80;99.90;;;;;;4936580;29;20477;-72
2023/10/12 06:28:24;;;;;;;4.07;2.53;;;12.70;99.90;;;;;;4936636;29;20485;-72
2023/10/12 06:30:52;;;;;;;5.10;2.40;;;12.80;99.90;;;;;;4936724;29;20552;-72
2023/10/12 06:33:22;;;;;;;4.40;2.40;;;12.80;99.90;;;;;;4936592;29;20462;-71
2023/10/12 06:36:01;;;;;;;5.57;2.00;;;12.70;99.90;;;;;;4937004;29;20465;-71
2023/10/12 06:38:38;;;;;;;3.50;2.63;;;12.70;99.90;;;;;;4936715;29;20488;-72
2023/10/12 06:44:13;;;;;;;11.73;2.63;;;12.70;99.90;;;;;;4936506;29;20472;-71
2023/10/12 06:46:45;;;;;;;4.47;2.20;;;12.80;99.90;;;;;;4936238;29;20895;-71
2023/10/12 06:49:17;;;;;;;6.67;2.63;;;12.80;99.90;;;;;;4936507;29;20504;-72
2023/10/12 06:51:42;;;;;;;5.27;2.20;;;12.80;99.90;;;;;;4936267;29;20469;-71
2023/10/12 06:54:17;;;;;;;2.67;2.50;;;12.80;99.90;;;;;;4936239;29;20552;-71
2023/10/12 06:56:50;;;;;;;5.23;2.20;;;12.80;99.90;;;;;;4936165;29;20237;-71
2023/10/12 06:59:21;;;;;;;5.83;2.17;;;12.80;99.90;;;;;;4936163;29;20469;-72
2023/10/12 07:02:09;;;;;;;6.57;2.53;;;12.80;99.90;;;;;;4936262;29;20556;-72
2023/10/12 07:04:38;;;;;;;3.83;2.10;;;12.80;99.90;;;;;;4935872;29;20509;-72
2023/10/12 07:07:07;;;;;;;6.00;2.53;;;12.80;99.90;;;;;;4936354;29;20572;-72
2023/10/12 07:09:42;;;;;;;3.13;1.90;;;12.90;99.90;;;;;;4936126;29;20924;-72
2023/10/12 07:12:12;;;;;;;3.30;2.33;;;12.90;99.90;;;;;;4936292;29;20469;-72
2023/10/12 07:14:46;;;;;;;5.23;2.13;;;12.90;99.90;;;;;;4936267;29;20468;-72
2023/10/12 07:17:13;;;;;;;4.70;2.20;;;12.90;99.90;;;;;;4935760;29;20497;-72
2023/10/12 07:19:40;;;;;;;4.47;2.23;;;13.00;99.90;;;;;;4936172;29;20493;-72
2023/10/12 07:22:09;;;;;;;5.50;2.60;;;12.90;99.90;;;;;;4935882;29;20476;-72
2023/10/12 07:24:38;;;;;;;3.67;2.53;;;13.00;99.90;;;;;;4935696;29;20469;-72
2023/10/12 07:27:11;;;;;;;2.17;2.07;;;13.00;99.90;;;;;;4935852;29;20525;-71
2023/10/12 07:29:44;;;;;;;7.00;2.43;;;13.00;99.90;;;;;;4935791;29;20497;-71
2023/10/12 07:32:18;;;;;;;3.97;2.23;;;13.00;99.90;;;;;;4936058;29;20521;-72
2023/10/12 07:34:51;;;;;;;3.87;2.23;;;13.10;99.90;;;;;;4935822;29;20559;-71
2023/10/12 07:37:18;;;;;;;4.77;2.30;;;13.10;99.90;;;;;;4935818;29;20489;-71
2023/10/12 07:39:45;;;;;;;5.37;1.97;;;13.10;99.90;;;;;;4935402;29;20485;-71
2023/10/12 07:42:14;;;;;;;4.00;1.90;;;13.10;99.90;;;;;;4935153;29;20858;-71
2023/10/12 07:44:42;;;;;;;7.00;2.17;;;13.10;99.90;;;;;;4935382;29;20495;-72
2023/10/12 07:47:18;;;;;;;6.60;2.20;;;13.20;99.90;;;;;;4936299;29;20573;-71
2023/10/12 07:49:50;;;;;;;3.93;2.40;;;13.20;99.90;;;;;;4935829;29;20556;-71
2023/10/12 07:52:31;;;;;;;3.67;2.10;;;13.20;99.90;;;;;;4935307;29;20469;-71
2023/10/12 07:54:58;;;;;;;5.80;1.93;;;13.20;99.90;;;;;;4935539;29;20465;-71
2023/10/12 07:57:29;;;;;;;1.80;1.70;;;13.20;99.90;;;;;;4935320;29;20486;-72
2023/10/12 08:00:34;;;;;;;1.90;1.67;;;13.10;99.90;;;;;;4935363;29;21070;-71
2023/10/12 08:03:05;;;;;;;3.30;3.10;;;13.10;99.90;;;;;;4935078;29;20836;-71
2023/10/12 08:08:33;;;;;;;2.40;2.20;;;13.20;99.90;;;;;;4931281;29;20488;-71
2023/10/12 08:11:08;;;;;;;3.50;1.83;;;13.10;99.90;;;;;;4935295;29;20465;-71
2023/10/12 08:13:39;;;;;;;2.83;2.20;;;13.10;99.90;;;;;;4935231;29;20978;-71
2023/10/12 08:16:14;;;;;;;6.10;2.53;;;13.10;99.90;;;;;;4935364;29;20809;-71
2023/10/12 08:21:31;;;;;;;4.73;2.40;;;13.20;99.90;;;;;;4936957;29;20491;-71
2023/10/12 08:24:04;;;;;;;2.83;2.43;;;13.20;99.90;;;;;;4935882;29;20461;-71
2023/10/12 08:26:47;;;;;;;3.50;2.40;;;13.30;99.90;;;;;;4936763;29;20469;-71
2023/10/12 08:29:23;;;;;;;6.13;2.30;;;13.40;99.90;;;;;;4936898;29;20964;-71
2023/10/12 08:32:15;;;;;;;6.40;1.90;;;13.50;99.90;;;;;;4935573;29;20472;-71
2023/10/12 08:34:42;;;;;;;3.17;1.90;;;13.50;99.90;;;;;;4934396;29;20477;-71
2023/10/12 08:37:17;;;;;;;2.93;2.63;;;13.60;99.90;;;;;;4934795;29;20590;-71
2023/10/12 08:40:05;;;;;;;2.17;1.93;;;13.60;99.90;;;;;;4934639;29;20468;-71
2023/10/12 08:42:37;;;;;;;4.63;2.13;;;13.60;99.90;;;;;;4934499;29;20477;-70
2023/10/12 08:45:09;;;;;;;2.40;1.30;;;13.60;99.90;;;;;;4935028;29;20470;-71
2023/10/12 08:47:48;;;;;;;15.97;2.37;;;13.70;99.90;;;;;;4934745;29;20571;-71
2023/10/12 08:53:03;;;;;;;5.00;1.97;;;13.80;99.90;;;;;;4934292;29;20485;-71
2023/10/12 08:55:32;;;;;;;3.60;2.67;;;13.80;99.90;;;;;;4934535;29;20469;-70
2023/10/12 08:58:11;;;;;;;2.27;2.10;;;13.90;99.90;;;;;;4934338;29;20856;-71
2023/10/12 09:00:44;;;;;;;2.00;1.37;;;14.00;99.90;;;;;;4934443;29;20489;-71
2023/10/12 09:03:27;;;;;;;7.00;2.00;;;14.00;99.90;;;;;;4934140;29;20984;-71
2023/10/12 09:05:55;;;;;;;6.03;1.60;;;14.00;99.90;;;;;;4934419;29;20465;-71
2023/10/12 09:11:14;;;;;;;1.10;1.00;;;14.20;99.90;;;;;;4934616;29;20469;-71
2023/10/12 09:13:45;;;;;;;8.40;1.40;;;14.20;99.90;;;;;;4934585;29;20479;-71
2023/10/12 09:16:14;;;;;;;2.70;1.13;;;14.40;99.90;;;;;;4934564;29;20473;-71
2023/10/12 09:18:46;;;;;;;2.30;1.23;;;14.50;99.90;;;;;;4933922;29;20508;-71
2023/10/12 09:21:23;;;;;;;6.73;2.20;;;14.60;99.90;;;;;;4934173;29;20492;-71
2023/10/12 09:23:52;;;;;;;3.20;1.30;;;14.70;99.90;;;;;;4934087;29;20989;-71
2023/10/12 09:26:31;;;;;;;5.17;1.23;;;14.80;99.90;;;;;;4933860;29;20496;-71
2023/10/12 09:29:08;;;;;;;2.37;1.30;;;14.90;99.90;;;;;;4934336;29;20467;-71
2023/10/12 09:34:43;;;;;;;5.63;1.70;;;15.10;99.90;;;;;;4912375;29;20465;-71
2023/10/12 09:37:17;;;;;;;2.30;1.00;;;15.30;99.90;;;;;;4930450;29;20525;-72
2023/10/12 09:39:47;;;;;;;6.30;2.40;;;15.50;99.90;;;;;;4933733;29;20566;-72
2023/10/12 09:42:23;;;;;;;3.30;1.30;;;15.60;99.90;;;;;;4933902;29;20560;-72
2023/10/12 09:45:01;;;;;;;1.90;1.10;;;15.70;99.90;;;;;;4933706;29;20922;-72
2023/10/12 09:47:43;;;;;;;2.77;1.10;;;15.80;99.90;;;;;;4937257;29;20496;-71
2023/10/12 09:50:16;;;;;;;5.43;1.20;;;15.90;99.90;;;;;;4937382;29;20484;-71
2023/10/12 09:52:47;;;;;;;2.73;0.93;;;16.00;99.90;;;;;;4937390;29;20477;-71
2023/10/12 09:55:24;;;;;;;5.03;1.50;;;16.20;99.90;;;;;;4937158;29;20540;-72
2023/10/12 09:57:53;;;;;;;1.23;0.70;;;16.40;99.90;;;;;;4937491;29;20485;-72
2023/10/12 10:00:28;;;;;;;4.37;1.20;;;16.50;99.90;;;;;;4937304;29;20496;-72
2023/10/12 10:02:59;;;;;;;7.27;1.30;;;16.50;99.90;;;;;;4937343;29;20472;-72
2023/10/12 10:05:51;;;;;;;1.07;1.07;;;16.40;99.90;;;;;;4937130;29;20504;-71
2023/10/12 10:08:19;;;;;;;0.97;0.90;;;16.30;99.90;;;;;;4937170;29;20481;-72
2023/10/12 10:10:48;;;;;;;4.50;0.73;;;16.20;99.90;;;;;;4937031;29;20490;-72
2023/10/12 10:13:40;;;;;;;2.83;1.27;;;16.20;99.90;;;;;;4937110;29;20919;-72
2023/10/12 10:16:10;;;;;;;3.20;1.27;;;16.00;99.90;;;;;;4936970;29;20532;-71
2023/10/12 10:18:49;;;;;;;3.23;1.33;;;16.00;99.90;;;;;;4966716;23;20506;-69
2023/10/12 10:21:22;;;;;;;2.77;1.00;;;16.00;99.90;;;;;;4956482;28;20496;-69
2023/10/12 10:23:52;;;;;;;1.80;1.70;;;16.00;99.90;;;;;;4956484;28;20978;-69
2023/10/12 10:26:23;;;;;;;1.40;1.30;;;16.10;99.90;;;;;;4956443;28;20504;-69
2023/10/12 10:29:04;;;;;;;3.23;1.50;;;16.10;99.90;;;;;;4956235;28;20504;-69
2023/10/12 10:31:35;;;;;;;0.97;0.70;;;16.00;99.90;;;;;;4956622;28;20478;-69
2023/10/12 10:34:06;;;;;;;2.13;0.80;;;15.90;99.90;;;;;;4956637;29;20836;-69
2023/10/12 10:36:35;;;;;;;1.37;0.63;;;15.90;99.90;;;;;;4956186;29;20538;-69
2023/10/12 10:39:09;;;;;;;6.37;0.90;;;15.90;99.90;;;;;;4956113;28;20518;-69
2023/10/12 10:41:45;;;;;;;3.13;0.70;;;15.90;99.90;;;;;;4956109;29;21012;-69
2023/10/12 10:44:15;;;;;;;1.80;0.90;;;15.80;99.90;;;;;;4956456;29;20473;-69
2023/10/12 10:46:44;;;;;;;2.70;0.67;;;15.80;99.90;;;;;;4956112;28;20525;-68
2023/10/12 10:49:15;;;;;;;2.30;1.00;;;15.70;99.90;;;;;;4956137;28;20577;-69
2023/10/12 10:51:47;;;;;;;5.40;0.97;;;15.70;99.90;;;;;;4955994;28;20467;-68
2023/10/12 10:54:18;;;;;;;2.13;1.00;;;15.80;99.90;;;;;;4956354;28;20729;-69
2023/10/12 10:56:47;;;;;;;1.90;0.90;;;15.80;99.90;;;;;;4956237;28;20477;-69
2023/10/12 10:59:18;;;;;;;1.90;1.07;;;15.90;99.90;;;;;;4955584;28;20488;-69
2023/10/12 11:01:48;;;;;;;2.93;1.20;;;15.90;99.90;;;;;;4955954;29;20531;-69
2023/10/12 11:04:31;;;;;;;1.90;0.53;;;15.90;99.90;;;;;;4955736;28;20472;-69
2023/10/12 11:07:03;;;;;;;1.90;1.20;;;15.90;99.90;;;;;;4955992;29;20504;-70
2023/10/12 11:09:54;;;;;;;1.13;0.97;;;16.00;99.90;;;;;;4956074;28;20598;-69
2023/10/12 11:12:20;;;;;;;2.70;0.97;;;16.00;99.90;;;;;;4954890;29;20486;-69
2023/10/12 11:14:52;;;;;;;2.30;1.07;;;16.10;99.90;;;;;;4954715;29;20563;-70
2023/10/12 11:17:20;;;;;;;3.10;1.23;;;16.10;99.90;;;;;;4955147;29;20468;-70
2023/10/12 11:19:46;;;;;;;6.17;0.90;;;16.20;99.90;;;;;;4954566;28;20500;-70
2023/10/12 11:22:15;;;;;;;1.27;0.70;;;16.20;99.90;;;;;;4954826;29;20582;-71
2023/10/12 11:24:45;;;;;;;0.70;0.70;;;16.20;99.90;;;;;;4954749;28;20468;-71
2023/10/12 11:27:12;;;;;;;2.87;1.10;;;16.20;99.90;;;;;;4954874;29;20478;-71
2023/10/12 11:29:50;;;;;;;2.87;2.63;;;16.20;99.90;;;;;;4955665;28;20499;-71
2023/10/12 11:32:20;;;;;;;2.30;1.40;;;16.20;99.90;;;;;;4955322;29;20471;-70
2023/10/12 11:34:52;;;;;;;2.90;1.00;;;16.30;99.90;;;;;;4954879;29;20479;-70
2023/10/12 11:37:20;;;;;;;3.27;0.80;;;16.40;99.90;;;;;;4955398;29;20461;-71
2023/10/12 11:39:49;;;;;;;1.93;1.20;;;16.40;99.90;;;;;;4954338;28;20494;-69
2023/10/12 11:42:17;;;;;;;1.80;1.30;;;16.50;99.90;;;;;;4954258;29;20571;-69
2023/10/12 11:44:45;;;;;;;5.50;0.83;;;16.50;99.90;;;;;;4954608;29;20564;-69
2023/10/12 11:47:30;;;;;;;2.33;0.90;;;16.60;99.90;;;;;;4954685;29;20491;-69
2023/10/12 11:49:58;;;;;;;1.80;0.90;;;16.60;99.90;;;;;;4954323;28;20555;-70
2023/10/12 11:52:32;;;;;;;0.80;0.80;;;16.60;99.90;;;;;;4954439;29;20460;-69
2023/10/12 11:55:06;;;;;;;1.13;0.70;;;16.70;99.90;;;;;;4954159;29;20964;-69
2023/10/12 11:57:33;;;;;;;2.27;1.30;;;16.80;99.90;;;;;;4954214;29;20475;-69
2023/10/12 12:00:00;;;;;;;2.57;1.07;;;16.80;99.90;;;;;;4953992;28;20485;-69
2023/10/12 12:02:27;;;;;;;1.20;1.10;;;16.90;99.90;;;;;;4953876;29;20532;-69
2023/10/12 12:04:54;;;;;;;4.67;0.80;;;16.90;99.90;;;;;;4954064;29;20463;-70
2023/10/12 12:07:20;;;;;;;5.87;1.30;;;16.90;99.90;;;;;;4954468;29;20466;-69
2023/10/12 12:09:52;;;;;;;2.60;1.20;;;17.00;99.90;;;;;;4953401;28;20524;-69
2023/10/12 12:12:19;;;;;;;1.67;0.90;;;17.00;99.90;;;;;;4954317;29;20476;-70
2023/10/12 12:14:47;;;;;;;2.60;1.00;;;17.10;99.90;;;;;;4953968;29;20468;-69
2023/10/12 12:17:15;;;;;;;3.80;1.33;;;17.10;99.90;;;;;;4954077;29;20461;-70
2023/10/12 12:19:41;;;;;;;3.07;1.40;;;17.20;99.90;;;;;;4953909;28;20629;-69
2023/10/12 12:22:10;;;;;;;4.17;1.10;;;17.30;99.90;;;;;;4954140;29;20497;-69
2023/10/12 12:24:37;;;;;;;1.53;0.70;;;17.20;99.90;;;;;;4953688;29;20520;-70
2023/10/12 12:27:06;;;;;;;4.77;0.67;;;17.30;99.90;;;;;;4953865;29;20975;-70
2023/10/12 12:29:33;;;;;;;1.43;0.70;;;17.30;99.90;;;;;;4953477;28;20579;-69
2023/10/12 12:32:03;;;;;;;1.07;0.70;;;17.30;99.90;;;;;;4954329;29;20464;-70
2023/10/12 12:34:41;;;;;;;2.00;1.07;;;17.30;99.90;;;;;;4954099;29;20998;-70
2023/10/12 12:37:08;;;;;;;3.60;0.97;;;17.20;99.90;;;;;;4953757;29;20513;-71
2023/10/12 12:39:36;;;;;;;2.97;0.83;;;17.10;99.90;;;;;;4953575;28;20484;-70
2023/10/12 12:42:09;;;;;;;1.67;1.03;;;17.00;99.90;;;;;;4953387;28;21006;-70
2023/10/12 12:44:35;;;;;;;2.50;0.57;;;16.80;99.90;;;;;;4953728;29;20571;-70
2023/10/12 12:47:02;;;;;;;1.43;0.90;;;16.80;99.90;;;;;;4953729;29;20488;-70
2023/10/12 12:49:29;;;;;;;2.63;0.90;;;16.80;99.90;;;;;;4953466;28;20485;-70
2023/10/12 12:51:57;;;;;;;0.67;0.67;;;16.90;99.90;;;;;;4953521;29;20838;-70
2023/10/12 12:54:24;;;;;;;3.17;1.10;;;16.90;99.90;;;;;;4953271;29;20473;-70
2023/10/12 12:56:53;;;;;;;2.33;0.73;;;17.00;99.90;;;;;;4953455;29;20487;-70
2023/10/12 12:59:23;;;;;;;8.57;1.63;;;16.90;99.90;;;;;;4953547;28;20543;-70
2023/10/12 13:01:50;;;;;;;2.97;0.63;;;16.80;99.90;;;;;;4953263;29;21114;-70
2023/10/12 13:04:18;;;;;;;0.70;0.70;;;16.80;99.90;;;;;;4953445;29;20465;-70
2023/10/12 13:06:45;;;;;;;1.00;0.57;;;16.80;99.90;;;;;;4953502;29;20465;-70
2023/10/12 13:09:28;;;;;;;1.90;0.77;;;16.80;99.90;;;;;;4953447;28;21135;-70
2023/10/12 13:11:55;;;;;;;1.50;0.80;;;16.80;99.90;;;;;;4953541;28;20467;-71
2023/10/12 13:14:24;;;;;;;1.90;1.00;;;16.80;99.90;;;;;;4953624;28;20472;-70
2023/10/12 13:16:51;;;;;;;1.40;1.30;;;16.80;99.90;;;;;;4953323;28;20494;-69
2023/10/12 13:19:18;;;;;;;1.60;0.60;;;16.80;99.90;;;;;;4952922;28;20902;-70
2023/10/12 13:21:45;;;;;;;3.97;0.83;;;16.80;99.90;;;;;;4955270;28;20497;-69
2023/10/12 13:24:13;;;;;;;2.93;0.97;;;16.70;99.90;;;;;;4957100;28;20463;-69
2023/10/12 13:26:43;;;;;;;3.60;0.63;;;16.60;99.90;;;;;;4956627;28;20479;-70
2023/10/12 13:29:10;;;;;;;3.33;0.80;;;16.60;99.90;;;;;;4956904;28;20530;-69
2023/10/12 13:31:38;;;;;;;1.40;0.90;;;16.50;99.90;;;;;;4956821;28;20818;-70
2023/10/12 13:34:06;;;;;;;1.80;0.50;;;16.50;99.90;;;;;;4956777;28;20474;-70
2023/10/12 13:36:33;;;;;;;2.10;0.57;;;16.50;99.90;;;;;;4956730;28;20480;-69
2023/10/12 13:38:59;;;;;;;0.87;0.50;;;16.50;99.90;;;;;;4956807;28;20827;-70
2023/10/12 13:41:26;;;;;;;3.20;0.90;;;16.50;99.90;;;;;;4956720;28;20495;-70
2023/10/12 13:43:53;;;;;;;1.50;0.57;;;16.40;99.90;;;;;;4956643;28;20475;-70
2023/10/12 13:46:20;;;;;;;2.10;0.83;;;16.40;99.90;;;;;;4956868;28;20938;-70
2023/10/12 13:48:49;;;;;;;1.53;1.43;;;16.40;99.90;;;;;;4956916;28;20521;-69
2023/10/12 13:51:19;;;;;;;1.90;0.80;;;16.40;99.90;;;;;;4956522;28;20945;-69
2023/10/12 13:53:46;;;;;;;2.20;0.70;;;16.40;99.90;;;;;;4956503;28;20531;-69
2023/10/12 13:56:14;;;;;;;4.10;0.80;;;16.50;99.90;;;;;;4956744;28;20474;-69
2023/10/12 13:58:42;;;;;;;0.80;0.80;;;16.50;99.90;;;;;;4956745;28;20482;-69
2023/10/12 14:01:14;;;;;;;1.90;0.90;;;16.40;99.90;;;;;;4956101;28;20950;-70
2023/10/12 14:03:45;;;;;;;1.27;0.60;;;16.40;99.90;;;;;;4956557;28;20471;-69
2023/10/12 14:06:13;;;;;;;3.27;0.87;;;16.40;99.90;;;;;;4956340;28;20623;-70
2023/10/12 14:08:40;;;;;;;3.13;0.97;;;16.40;99.90;;;;;;4957028;28;20971;-70
2023/10/12 14:11:10;;;;;;;1.13;0.90;;;16.40;99.90;;;;;;4956715;28;20471;-70
2023/10/12 14:13:38;;;;;;;4.00;1.00;;;16.40;99.90;;;;;;4956295;28;20472;-70
2023/10/12 14:16:08;;;;;;;3.53;0.90;;;16.30;99.90;;;;;;4956316;28;20500;-70
2023/10/12 14:18:35;;;;;;;4.43;0.87;;;16.30;99.90;;;;;;4956116;28;20507;-69
2023/10/12 14:21:02;;;;;;;5.87;1.07;;;16.30;99.90;;;;;;4956259;28;20467;-70
2023/10/12 14:23:30;;;;;;;0.93;0.93;;;16.30;99.90;;;;;;4956160;28;20499;-70
2023/10/12 14:25:57;;;;;;;4.47;1.10;;;16.30;99.90;;;;;;4955923;28;20467;-70
2023/10/12 14:28:31;;;;;;;0.73;0.73;;;16.20;99.90;;;;;;4955714;28;20546;-69
2023/10/12 14:30:58;;;;;;;1.43;0.77;;;16.10;99.90;;;;;;4955863;28;20494;-70
2023/10/12 14:33:25;;;;;;;5.60;0.77;;;16.10;99.90;;;;;;4954595;28;20462;-69
2023/10/12 14:35:54;;;;;;;1.70;1.00;;;16.10;99.90;;;;;;4955699;28;20479;-69
2023/10/12 14:38:22;;;;;;;3.00;0.73;;;16.00;99.90;;;;;;4955798;28;20551;-70
2023/10/12 14:40:51;;;;;;;0.90;0.90;;;16.00;99.90;;;;;;4955494;28;20892;-70
2023/10/12 14:43:21;;;;;;;0.87;0.60;;;15.90;99.90;;;;;;4955658;28;20498;-70
2023/10/12 14:45:55;;;;;;;1.03;0.73;;;15.90;99.90;;;;;;4955442;29;20475;-69
2023/10/12 14:48:22;;;;;;;2.07;0.73;;;15.80;99.90;;;;;;4955528;28;20499;-69
2023/10/12 14:51:01;;;;;;;1.60;0.97;;;15.80;99.90;;;;;;4955394;29;20472;-70
2023/10/12 14:53:29;;;;;;;0.70;0.70;;;15.70;99.90;;;;;;4955173;29;20463;-70
2023/10/12 14:55:57;;;;;;;1.07;0.60;;;15.70;99.90;;;;;;4955276;29;20476;-69
2023/10/12 14:58:26;;;;;;;4.40;0.73;;;15.70;99.90;;;;;;4955282;28;20497;-70
2023/10/12 15:00:53;;;;;;;0.70;0.70;;;15.60;99.90;;;;;;4955096;29;20482;-70
2023/10/12 15:03:21;;;;;;;2.20;0.70;;;15.50;99.90;;;;;;4954880;29;21020;-70
2023/10/12 15:05:51;;;;;;;7.67;1.20;;;15.50;99.90;;;;;;4954914;29;20471;-70
2023/10/12 15:08:18;;;;;;;3.47;0.80;;;15.50;99.90;;;;;;4956244;28;20555;-69
2023/10/12 15:10:45;;;;;;;1.23;0.77;;;15.40;99.90;;;;;;4955724;29;20471;-70
2023/10/12 15:13:14;;;;;;;2.83;1.17;;;15.40;99.90;;;;;;4955825;29;20514;-70
2023/10/12 15:15:45;;;;;;;1.43;0.90;;;15.40;99.90;;;;;;4955235;29;20470;-69
2023/10/12 15:18:12;;;;;;;0.80;0.80;;;15.30;99.90;;;;;;4954916;28;20502;-70
2023/10/12 15:20:38;;;;;;;1.50;1.00;;;15.20;99.90;;;;;;4954826;29;20997;-69
2023/10/12 15:23:06;;;;;;;1.87;1.37;;;15.20;99.90;;;;;;4955443;29;20494;-69
2023/10/12 15:25:34;;;;;;;2.83;1.73;;;15.10;99.90;;;;;;4956204;28;20530;-69
2023/10/12 15:28:02;;;;;;;6.93;1.17;;;15.10;99.90;;;;;;4956395;28;20540;-69
2023/10/12 15:30:31;;;;;;;0.60;0.60;;;15.10;99.90;;;;;;4955914;29;21033;-69
2023/10/12 15:32:59;;;;;;;1.77;0.80;;;15.00;99.90;;;;;;4954732;29;20903;-69
2023/10/12 15:35:28;;;;;;;4.70;0.97;;;15.00;99.90;;;;;;4954681;29;20521;-69
2023/10/12 15:37:57;;;;;;;1.40;1.30;;;14.90;99.90;;;;;;4954678;28;20467;-70
2023/10/12 15:40:25;;;;;;;3.23;1.73;;;14.90;99.90;;;;;;4954713;29;20963;-69
2023/10/12 15:42:53;;;;;;;3.53;1.27;;;14.90;99.90;;;;;;4954655;28;20582;-69
2023/10/12 15:45:21;;;;;;;1.60;1.30;;;14.80;99.90;;;;;;4954577;28;20469;-70
2023/10/12 15:47:49;;;;;;;4.77;2.13;;;14.80;99.90;;;;;;4954813;28;20508;-69
2023/10/12 15:50:16;;;;;;;3.90;2.07;;;14.80;99.90;;;;;;4955094;29;20466;-69
2023/10/12 15:52:45;;;;;;;1.87;1.73;;;14.80;99.90;;;;;;4955238;28;20469;-69
2023/10/12 15:55:13;;;;;;;5.00;2.27;;;14.70;99.90;;;;;;4949647;29;20466;-69
2023/10/12 15:57:42;;;;;;;3.90;2.20;;;14.70;99.90;;;;;;4952650;29;20509;-69
2023/10/12 16:00:19;;;;;;;1.80;1.70;;;14.60;99.90;;;;;;4954612;28;20493;-70
2023/10/12 16:02:46;;;;;;;4.03;2.17;;;14.60;99.90;;;;;;4954557;28;20528;-70
2023/10/12 16:05:16;;;;;;;3.93;2.37;;;14.60;99.90;;;;;;4954320;29;20469;-69
2023/10/12 16:07:43;;;;;;;4.23;2.20;;;14.50;99.90;;;;;;4954320;28;20472;-70
2023/10/12 16:10:10;;;;;;;2.50;2.30;;;14.50;99.90;;;;;;4954474;29;20468;-70
2023/10/12 16:12:37;;;;;;;3.60;1.33;;;14.40;99.90;;;;;;4953992;29;20460;-70
2023/10/12 16:15:05;;;;;;;3.73;1.63;;;14.30;99.90;;;;;;4954242;29;20469;-69
2023/10/12 16:17:32;;;;;;;4.93;1.90;;;14.30;99.90;;;;;;4954024;28;20465;-70
2023/10/12 16:19:59;;;;;;;1.67;1.47;;;14.20;99.90;;;;;;4976333;23;20504;-72
2023/10/12 16:22:29;;;;;;;2.13;1.87;;;14.20;99.90;;;;;;4954402;28;20598;-72
2023/10/12 16:24:55;;;;;;;2.47;1.40;;;14.10;99.90;;;;;;4954107;28;20469;-71
2023/10/12 16:27:24;;;;;;;4.60;2.23;;;14.10;99.90;;;;;;4954103;28;20472;-71
2023/10/12 16:29:51;;;;;;;1.60;1.60;;;14.10;99.90;;;;;;4953675;28;20923;-72
2023/10/12 16:32:18;;;;;;;2.17;2.07;;;14.10;99.90;;;;;;4953621;29;20466;-72
2023/10/12 16:34:44;;;;;;;3.23;1.30;;;14.10;99.90;;;;;;4953452;29;20528;-72
2023/10/12 16:37:12;;;;;;;8.03;3.60;;;14.00;99.90;;;;;;4953709;29;20974;-72
2023/10/12 16:39:40;;;;;;;4.10;3.37;;;14.00;99.90;;;;;;4953068;28;20496;-72
2023/10/12 16:42:08;;;;;;;3.20;2.83;;;14.00;99.90;;;;;;4953572;29;20898;-72
2023/10/12 16:44:34;;;;;;;5.50;2.77;;;14.00;99.90;;;;;;4953018;29;20963;-71
2023/10/12 16:47:01;;;;;;;2.47;2.30;;;14.00;99.90;;;;;;4953079;29;20935;-72
2023/10/12 16:49:28;;;;;;;3.93;2.80;;;13.90;99.90;;;;;;4953219;28;20496;-72
2023/10/12 16:51:55;;;;;;;3.40;3.10;;;13.90;99.90;;;;;;4953766;29;20469;-71
2023/10/12 16:54:22;;;;;;;2.40;2.20;;;13.90;99.90;;;;;;4953190;28;20453;-71
2023/10/12 16:56:52;;;;;;;4.00;3.00;;;13.80;99.90;;;;;;4952439;28;20468;-72
2023/10/12 16:59:19;;;;;;;3.53;3.23;;;13.80;99.90;;;;;;4953186;28;20569;-72
2023/10/12 17:01:46;;;;;;;5.20;4.67;;;13.80;99.90;;;;;;4953090;29;20461;-71
2023/10/12 17:04:18;;;;;;;5.00;4.60;;;13.70;99.90;;;;;;4952881;29;21011;-72
2023/10/12 17:06:45;;;;;;;5.13;3.90;;;13.70;99.90;;;;;;4952974;29;20464;-72
2023/10/12 17:09:13;;;;;;;6.90;4.13;;;13.70;99.90;;;;;;4953522;28;20489;-71
2023/10/12 17:11:39;;;;;;;5.17;4.10;;;13.70;99.90;;;;;;4954664;28;20476;-72
2023/10/12 17:14:08;;;;;;;4.83;4.53;;;13.60;99.90;;;;;;4953593;29;20465;-71
2023/10/12 17:16:35;;;;;;;4.40;3.10;;;13.60;99.90;;;;;;4953115;29;20468;-71
2023/10/12 17:19:04;;;;;;;9.40;3.30;;;13.60;99.90;;;;;;4952857;28;20519;-71
2023/10/12 17:21:32;;;;;;;3.97;3.47;;;13.60;99.90;;;;;;4953044;28;20465;-72
2023/10/12 17:23:58;;;;;;;7.53;2.70;;;13.50;99.90;;;;;;4945609;29;20496;-72
2023/10/12 17:26:25;;;;;;;5.07;4.00;;;13.50;99.90;;;;;;4945118;28;20504;-71
2023/10/12 17:28:53;;;;;;;3.17;2.93;;;13.50;99.90;;;;;;4953390;28;20500;-71
2023/10/12 17:31:26;;;;;;;3.83;3.63;;;13.50;99.90;;;;;;4953529;28;20469;-71
2023/10/12 17:33:54;;;;;;;9.10;4.10;;;13.50;99.90;;;;;;4953390;29;20491;-71
2023/10/12 17:36:20;;;;;;;5.43;4.90;;;13.40;99.90;;;;;;4953573;28;20527;-72